createdAt,value
2023-03-27T00:01:33.154Z,80.95
2023-03-27T00:04:01.280Z,81.24
2023-03-27T00:06:29.317Z,81.34
2023-03-27T00:08:57.298Z,81.55
2023-03-27T00:11:25.541Z,81.73
2023-03-27T00:13:55.073Z,81.73
2023-03-27T00:16:27.007Z,81.75
2023-03-27T00:18:55.664Z,81.81
2023-03-27T00:21:23.758Z,81.88
2023-03-27T00:23:52.550Z,82.07
2023-03-27T00:26:24.222Z,82.30
2023-03-27T00:28:52.920Z,81.97
2023-03-27T00:31:21.518Z,81.94
2023-03-27T00:33:49.858Z,81.81
2023-03-27T00:36:17.822Z,81.52
2023-03-27T00:38:45.948Z,81.43
2023-03-27T00:41:14.219Z,81.34
2023-03-27T00:43:44.124Z,81.21
2023-03-27T00:46:15.759Z,81.05
2023-03-27T00:48:48.311Z,80.78
2023-03-27T00:51:18.469Z,80.63
2023-03-27T00:53:48.369Z,80.43
2023-03-27T00:56:18.051Z,80.42
2023-03-27T00:58:52.839Z,80.54
2023-03-27T01:01:23.499Z,80.80
2023-03-27T01:03:54.076Z,81.02
2023-03-27T01:06:23.008Z,81.03
2023-03-27T01:08:51.874Z,81.22
2023-03-27T01:11:27.073Z,81.25
2023-03-27T01:14:01.433Z,81.05
2023-03-27T01:16:59.938Z,81.09
2023-03-27T01:19:58.317Z,81.09
2023-03-27T01:23:05.087Z,81.31
2023-03-27T01:25:42.327Z,81.24
2023-03-27T01:28:44.460Z,81.03
2023-03-27T01:31:41.566Z,80.96
2023-03-27T01:34:45.118Z,80.93
2023-03-27T01:37:28.720Z,80.57
2023-03-27T01:40:04.178Z,80.51
2023-03-27T01:42:44.540Z,80.80
2023-03-27T01:45:29.343Z,80.79
2023-03-27T01:48:19.142Z,80.59
2023-03-27T01:50:52.256Z,80.49
2023-03-27T01:53:23.828Z,80.62
2023-03-27T01:55:58.701Z,80.51
2023-03-27T01:58:33.290Z,80.52
2023-03-27T02:01:03.395Z,80.33
2023-03-27T02:03:36.831Z,80.29
2023-03-27T02:06:13.969Z,80.28
2023-03-27T02:08:57.602Z,80.10
2023-03-27T02:11:31.146Z,80.06
2023-03-27T02:14:23.436Z,80.01
2023-03-27T02:16:58.521Z,80.12
2023-03-27T02:19:36.022Z,80.05
2023-03-27T02:22:05.234Z,79.90
2023-03-27T02:24:43.664Z,80.11
2023-03-27T02:27:48.006Z,80.05
2023-03-27T02:30:19.462Z,80.21
2023-03-27T02:32:48.226Z,80.15
2023-03-27T02:35:38.009Z,79.90
2023-03-27T02:38:41.317Z,79.92
2023-03-27T02:41:22.396Z,79.94
2023-03-27T02:44:05.849Z,79.94
2023-03-27T02:47:19.293Z,79.90
2023-03-27T02:49:53.332Z,80.05
2023-03-27T02:52:31.292Z,80.15
2023-03-27T02:55:06.810Z,80.09
2023-03-27T02:57:52.313Z,79.92
2023-03-27T03:00:49.045Z,80.01
2023-03-27T03:03:53.892Z,79.81
2023-03-27T03:06:42.629Z,79.92
2023-03-27T03:09:11.314Z,79.96
2023-03-27T03:11:48.749Z,79.97
2023-03-27T03:14:21.026Z,79.90
2023-03-27T03:16:49.182Z,79.86
2023-03-27T03:19:17.194Z,79.89
2023-03-27T03:21:49.603Z,79.79
2023-03-27T03:24:19.071Z,79.92
2023-03-27T03:26:50.169Z,80.05
2023-03-27T03:29:21.976Z,80.19
2023-03-27T03:32:06.448Z,80.25
2023-03-27T03:34:34.821Z,80.34
2023-03-27T03:37:02.862Z,80.53
2023-03-27T03:39:32.099Z,80.76
2023-03-27T03:42:00.494Z,80.95
2023-03-27T03:44:28.676Z,81.18
2023-03-27T03:46:57.212Z,81.17
2023-03-27T03:49:25.297Z,81.18
2023-03-27T03:52:04.465Z,81.53
2023-03-27T03:54:33.893Z,81.83
2023-03-27T03:57:03.523Z,82.01
2023-03-27T03:59:32.218Z,82.18
2023-03-27T04:02:28.949Z,82.43
2023-03-27T04:05:10.524Z,82.78
2023-03-27T04:07:41.293Z,83.15
2023-03-27T04:10:29.744Z,83.51
2023-03-27T04:12:59.797Z,83.79
2023-03-27T04:15:33.497Z,84.11
2023-03-27T04:18:10.593Z,84.51
2023-03-27T04:20:39.051Z,84.74
2023-03-27T04:23:09.991Z,84.93
2023-03-27T04:25:40.466Z,85.19
2023-03-27T04:28:10.412Z,85.31
2023-03-27T04:30:44.474Z,85.43
2023-03-27T04:33:19.320Z,85.57
2023-03-27T04:36:05.955Z,85.58
2023-03-27T04:38:55.735Z,85.53
2023-03-27T04:41:24.106Z,85.77
2023-03-27T04:43:52.055Z,85.73
2023-03-27T04:46:20.105Z,85.79
2023-03-27T04:48:52.225Z,85.81
2023-03-27T04:51:32.426Z,85.64
2023-03-27T04:54:04.966Z,85.51
2023-03-27T04:56:36.649Z,85.55
2023-03-27T04:59:06.157Z,85.65
2023-03-27T05:01:34.220Z,85.69
2023-03-27T05:04:05.134Z,85.67
2023-03-27T05:06:49.507Z,85.57
2023-03-27T05:09:18.183Z,85.63
2023-03-27T05:11:49.750Z,85.77
2023-03-27T05:14:20.044Z,85.62
2023-03-27T05:16:52.477Z,85.46
2023-03-27T05:19:21.097Z,85.42
2023-03-27T05:21:57.003Z,85.34
2023-03-27T05:24:25.109Z,85.35
2023-03-27T05:26:54.383Z,85.25
2023-03-27T05:29:22.488Z,85.45
2023-03-27T05:31:58.138Z,85.70
2023-03-27T05:34:56.643Z,86.00
2023-03-27T05:37:27.460Z,86.23
2023-03-27T05:40:22.295Z,86.46
2023-03-27T05:42:51.509Z,86.68
2023-03-27T05:45:19.863Z,86.96
2023-03-27T05:47:53.779Z,87.15
2023-03-27T05:50:25.480Z,87.27
2023-03-27T05:52:59.435Z,87.27
2023-03-27T05:55:37.236Z,87.39
2023-03-27T05:58:10.282Z,87.45
2023-03-27T06:00:42.278Z,87.59
2023-03-27T06:03:12.850Z,87.78
2023-03-27T06:06:12.457Z,87.76
2023-03-27T06:08:42.470Z,88.03
2023-03-27T06:11:12.048Z,87.90
2023-03-27T06:13:46.467Z,87.91
2023-03-27T06:16:21.184Z,88.13
2023-03-27T06:18:52.448Z,88.01
2023-03-27T06:21:22.627Z,87.77
2023-03-27T06:23:51.247Z,87.64
2023-03-27T06:26:20.144Z,87.49
2023-03-27T06:28:48.695Z,87.24
2023-03-27T06:31:17.716Z,86.94
2023-03-27T06:34:03.527Z,86.87
2023-03-27T06:36:43.170Z,86.68
2023-03-27T06:39:12.443Z,86.52
2023-03-27T06:41:43.279Z,86.18
2023-03-27T06:44:19.255Z,85.86
2023-03-27T06:47:14.288Z,85.66
2023-03-27T06:50:07.692Z,85.37
2023-03-27T06:52:37.161Z,85.19
2023-03-27T06:55:19.097Z,84.76
2023-03-27T06:57:55.210Z,84.13
2023-03-27T07:00:29.223Z,83.63
2023-03-27T07:03:15.912Z,83.23
2023-03-27T07:05:55.772Z,83.19
2023-03-27T07:08:27.139Z,82.85
2023-03-27T07:11:10.772Z,82.62
2023-03-27T07:13:42.629Z,82.69
2023-03-27T07:16:17.407Z,82.63
2023-03-27T07:18:46.210Z,82.08
2023-03-27T07:21:16.074Z,82.22
2023-03-27T07:23:45.828Z,82.01
2023-03-27T07:26:17.362Z,81.87
2023-03-27T07:29:00.827Z,81.85
2023-03-27T07:31:50.969Z,81.29
2023-03-27T07:34:18.027Z,80.77
2023-03-27T07:37:16.104Z,79.58
2023-03-27T07:40:07.084Z,79.49
2023-03-27T07:42:35.489Z,78.64
2023-03-27T07:45:07.122Z,78.83
2023-03-27T07:47:37.954Z,78.99
2023-03-27T07:50:11.412Z,78.86
2023-03-27T07:52:45.062Z,78.27
2023-03-27T07:55:18.303Z,78.00
2023-03-27T07:58:02.460Z,77.48
2023-03-27T08:00:35.498Z,77.28
2023-03-27T08:03:15.028Z,76.98
2023-03-27T08:05:53.090Z,77.09
2023-03-27T08:08:21.192Z,76.72
2023-03-27T08:10:57.779Z,76.14
2023-03-27T08:13:28.092Z,75.43
2023-03-27T08:16:19.801Z,75.68
2023-03-27T08:18:49.911Z,76.18
2023-03-27T08:21:18.660Z,76.04
2023-03-27T08:23:49.644Z,75.61
2023-03-27T08:26:36.477Z,75.82
2023-03-27T08:29:08.399Z,75.46
2023-03-27T08:31:36.747Z,75.13
2023-03-27T08:34:06.433Z,74.97
2023-03-27T08:36:42.361Z,74.58
2023-03-27T08:39:11.250Z,74.68
2023-03-27T08:41:55.336Z,74.71
2023-03-27T08:44:31.349Z,74.73
2023-03-27T08:47:18.738Z,74.36
2023-03-27T08:50:22.363Z,74.15
2023-03-27T08:52:54.080Z,74.69
2023-03-27T08:55:40.519Z,74.64
2023-03-27T08:58:21.768Z,73.91
2023-03-27T09:01:04.610Z,73.50
2023-03-27T09:03:41.423Z,73.25
2023-03-27T09:06:16.932Z,73.88
2023-03-27T09:08:57.150Z,73.98
2023-03-27T09:11:45.016Z,73.66
2023-03-27T09:14:26.143Z,73.32
2023-03-27T09:16:57.116Z,72.52
2023-03-27T09:19:56.292Z,72.51
2023-03-27T09:22:41.033Z,72.02
2023-03-27T09:25:24.189Z,71.33
2023-03-27T09:28:24.249Z,71.66
2023-03-27T09:31:17.353Z,71.63
2023-03-27T09:33:45.585Z,71.85
2023-03-27T09:36:13.994Z,71.08
2023-03-27T09:38:46.567Z,71.30
2023-03-27T09:41:22.880Z,70.99
2023-03-27T09:44:03.897Z,70.55
2023-03-27T09:46:36.638Z,71.28
2023-03-27T09:49:17.406Z,72.16
2023-03-27T09:51:58.300Z,71.41
2023-03-27T09:54:53.523Z,71.04
2023-03-27T09:57:32.325Z,71.23
2023-03-27T10:00:15.660Z,70.99
2023-03-27T10:02:48.745Z,70.68
2023-03-27T10:05:22.352Z,70.84
2023-03-27T10:07:54.816Z,70.97
2023-03-27T10:10:32.772Z,70.76
2023-03-27T10:13:11.922Z,70.82
2023-03-27T10:15:44.995Z,70.52
2023-03-27T10:18:25.284Z,70.50
2023-03-27T10:20:57.121Z,70.50
2023-03-27T10:23:30.048Z,70.81
2023-03-27T10:26:00.987Z,70.73
2023-03-27T10:28:46.739Z,69.51
2023-03-27T10:31:30.669Z,70.05
2023-03-27T10:34:36.756Z,69.71
2023-03-27T10:37:32.332Z,68.79
2023-03-27T10:40:33.201Z,69.43
2023-03-27T10:43:12.943Z,68.59
2023-03-27T10:45:54.428Z,68.36
2023-03-27T10:48:38.142Z,68.36
2023-03-27T10:51:39.426Z,68.81
2023-03-27T10:54:26.794Z,69.26
2023-03-27T10:57:04.370Z,67.24
2023-03-27T10:59:53.996Z,67.49
2023-03-27T11:02:38.722Z,66.20
2023-03-27T11:05:23.905Z,65.94
2023-03-27T11:08:03.151Z,66.73
2023-03-27T11:10:36.756Z,66.83
2023-03-27T11:13:14.810Z,66.92
2023-03-27T11:15:49.605Z,66.77
2023-03-27T11:18:45.711Z,67.15
2023-03-27T11:21:20.060Z,66.27
2023-03-27T11:23:58.725Z,65.69
2023-03-27T11:26:36.925Z,65.27
2023-03-27T11:29:21.466Z,66.04
2023-03-27T11:31:54.746Z,66.83
2023-03-27T11:34:40.918Z,65.39
2023-03-27T11:37:54.300Z,64.38
2023-03-27T11:40:35.384Z,64.22
2023-03-27T11:43:04.120Z,63.67
2023-03-27T11:45:44.968Z,64.01
2023-03-27T11:48:22.795Z,64.10
2023-03-27T11:50:58.665Z,64.95
2023-03-27T11:54:05.879Z,64.82
2023-03-27T11:56:59.401Z,65.38
2023-03-27T12:00:06.929Z,64.53
2023-03-27T12:03:02.657Z,63.38
2023-03-27T12:05:43.110Z,63.12
2023-03-27T12:08:17.015Z,60.87
2023-03-27T12:10:49.833Z,62.17
2023-03-27T12:13:42.766Z,62.89
2023-03-27T12:16:37.870Z,63.03
2023-03-27T12:19:28.567Z,62.86
2023-03-27T12:22:52.235Z,63.23
2023-03-27T12:25:49.659Z,63.05
2023-03-27T12:28:53.339Z,62.41
2023-03-27T12:31:45.288Z,62.94
2023-03-27T12:34:26.062Z,63.21
2023-03-27T12:36:54.616Z,63.64
2023-03-27T12:39:28.898Z,63.91
2023-03-27T12:42:13.200Z,64.09
2023-03-27T12:45:05.756Z,64.60
2023-03-27T12:47:33.965Z,64.91
2023-03-27T12:50:19.517Z,64.89
2023-03-27T12:52:47.824Z,64.77
2023-03-27T12:55:19.025Z,65.02
2023-03-27T12:57:53.949Z,64.75
2023-03-27T13:00:40.879Z,64.06
2023-03-27T13:04:08.036Z,64.20
2023-03-27T13:06:44.854Z,64.59
2023-03-27T13:09:49.259Z,63.99
2023-03-27T13:12:37.431Z,63.73
2023-03-27T13:15:31.758Z,63.45
2023-03-27T13:18:45.817Z,62.18
2023-03-27T13:21:42.515Z,62.55
2023-03-27T13:24:45.015Z,63.14
2023-03-27T13:27:53.274Z,63.15
2023-03-27T13:30:47.274Z,62.64
2023-03-27T13:34:41.323Z,63.68
2023-03-27T13:37:16.384Z,64.22
2023-03-27T13:39:56.271Z,64.32
2023-03-27T13:42:35.527Z,64.18
2023-03-27T13:45:22.182Z,64.57
2023-03-27T13:48:43.706Z,64.05
2023-03-27T13:51:24.664Z,64.64
2023-03-27T13:54:06.938Z,64.70
2023-03-27T13:56:52.590Z,65.49
2023-03-27T13:59:49.424Z,64.41
2023-03-27T14:02:40.750Z,64.85
2023-03-27T14:05:18.087Z,64.85
2023-03-27T14:08:06.059Z,64.69
2023-03-27T14:11:32.269Z,64.78
2023-03-27T14:14:23.871Z,65.14
2023-03-27T14:17:02.199Z,65.87
2023-03-27T14:19:51.861Z,65.64
2023-03-27T14:22:28.177Z,65.59
2023-03-27T14:25:02.933Z,65.60
2023-03-27T14:27:56.040Z,65.89
2023-03-27T14:30:32.796Z,66.21
2023-03-27T14:33:24.917Z,66.20
2023-03-27T14:36:04.074Z,66.22
2023-03-27T14:38:37.399Z,66.18
2023-03-27T14:41:17.644Z,65.36
2023-03-27T14:43:52.631Z,65.74
2023-03-27T14:46:24.644Z,66.36
2023-03-27T14:48:58.176Z,66.45
2023-03-27T14:51:38.118Z,66.76
2023-03-27T14:54:14.080Z,67.03
2023-03-27T14:56:51.647Z,67.28
2023-03-27T14:59:40.321Z,67.64
2023-03-27T15:02:23.689Z,67.63
2023-03-27T15:04:58.288Z,67.62
2023-03-27T15:07:30.809Z,67.62
2023-03-27T15:10:24.437Z,67.73
2023-03-27T15:13:35.527Z,67.90
2023-03-27T15:16:06.884Z,67.98
2023-03-27T15:19:12.553Z,68.33
2023-03-27T15:22:00.594Z,68.34
2023-03-27T15:24:37.240Z,68.18
2023-03-27T15:27:10.086Z,68.32
2023-03-27T15:29:43.263Z,68.12
2023-03-27T15:32:15.037Z,68.14
2023-03-27T15:35:05.570Z,68.15
2023-03-27T15:37:35.079Z,68.08
2023-03-27T15:40:15.778Z,67.99
2023-03-27T15:42:47.134Z,68.16
2023-03-27T15:45:17.460Z,68.38
2023-03-27T15:48:01.258Z,68.14
2023-03-27T15:50:29.634Z,68.08
2023-03-27T15:53:01.699Z,68.33
2023-03-27T15:55:37.934Z,68.40
2023-03-27T15:58:29.840Z,68.17
2023-03-27T16:01:01.142Z,67.78
2023-03-27T16:03:35.176Z,67.77
2023-03-27T16:06:05.108Z,67.75
2023-03-27T16:08:41.678Z,67.88
2023-03-27T16:11:11.221Z,67.71
2023-03-27T16:13:56.178Z,67.14
2023-03-27T16:16:27.418Z,67.02
2023-03-27T16:18:59.979Z,66.93
2023-03-27T16:21:34.181Z,67.01
2023-03-27T16:24:04.114Z,67.23
2023-03-27T16:26:32.872Z,67.13
2023-03-27T16:29:04.711Z,66.59
2023-03-27T16:31:33.033Z,66.70
2023-03-27T16:34:01.389Z,66.30
2023-03-27T16:36:31.922Z,66.81
2023-03-27T16:39:07.125Z,67.74
2023-03-27T16:41:35.468Z,69.09
2023-03-27T16:44:03.987Z,69.91
2023-03-27T16:46:32.911Z,70.08
2023-03-27T16:49:01.084Z,70.64
2023-03-27T16:51:30.075Z,71.19
2023-03-27T16:53:57.955Z,71.72
2023-03-27T16:56:26.566Z,71.83
2023-03-27T16:58:55.358Z,72.10
2023-03-27T17:01:26.224Z,72.24
2023-03-27T17:03:54.464Z,72.44
2023-03-27T17:06:22.948Z,72.47
2023-03-27T17:08:55.962Z,72.60
2023-03-27T17:11:24.953Z,72.86
2023-03-27T17:13:53.906Z,73.12
2023-03-27T17:16:22.184Z,73.00
2023-03-27T17:18:51.936Z,72.57
2023-03-27T17:21:24.977Z,72.53
2023-03-27T17:23:55.124Z,72.89
2023-03-27T17:26:25.510Z,73.00
2023-03-27T17:28:55.556Z,73.29
2023-03-27T17:31:25.034Z,73.55
2023-03-27T17:33:53.170Z,73.52
2023-03-27T17:36:33.110Z,73.69
2023-03-27T17:39:08.169Z,74.19
2023-03-27T17:41:36.405Z,74.52
2023-03-27T17:44:06.197Z,74.53
2023-03-27T17:46:36.597Z,74.98
2023-03-27T17:49:05.352Z,75.25
2023-03-27T17:51:35.445Z,75.76
2023-03-27T17:54:04.879Z,75.86
2023-03-27T17:56:33.069Z,76.05
2023-03-27T17:59:01.165Z,76.05
2023-03-27T18:01:29.269Z,76.13
2023-03-27T18:04:00.562Z,76.51
2023-03-27T18:06:28.731Z,76.01
2023-03-27T18:08:57.175Z,75.85
2023-03-27T18:11:26.043Z,75.71
2023-03-27T18:13:54.125Z,76.22
2023-03-27T18:16:23.224Z,76.37
2023-03-27T18:18:54.327Z,76.04
2023-03-27T18:21:22.392Z,76.02
2023-03-27T18:23:53.337Z,76.27
2023-03-27T18:26:21.912Z,76.10
2023-03-27T18:28:49.799Z,76.05
2023-03-27T18:31:18.336Z,76.01
2023-03-27T18:33:46.564Z,75.91
2023-03-27T18:36:17.079Z,76.06
2023-03-27T18:38:46.298Z,76.14
2023-03-27T18:41:15.684Z,75.98
2023-03-27T18:43:43.576Z,76.11
2023-03-27T18:46:17.012Z,76.05
2023-03-27T18:48:48.703Z,76.07
2023-03-27T18:51:19.921Z,76.35
2023-03-27T18:53:50.624Z,76.33
2023-03-27T18:56:18.755Z,76.32
2023-03-27T18:58:47.641Z,76.30
2023-03-27T19:01:16.107Z,76.30
2023-03-27T19:03:47.517Z,76.40
2023-03-27T19:06:18.384Z,76.53
2023-03-27T19:08:46.563Z,76.27
2023-03-27T19:11:14.560Z,76.19
2023-03-27T19:14:01.745Z,76.23
2023-03-27T19:16:44.824Z,76.38
2023-03-27T19:19:32.184Z,76.49
2023-03-27T19:22:18.901Z,76.21
2023-03-27T19:24:52.162Z,75.88
2023-03-27T19:27:23.675Z,75.66
2023-03-27T19:29:54.113Z,75.46
2023-03-27T19:32:24.274Z,75.22
2023-03-27T19:34:52.554Z,74.83
2023-03-27T19:37:20.778Z,73.66
2023-03-27T19:39:50.993Z,73.38
2023-03-27T19:42:19.855Z,72.48
2023-03-27T19:44:48.114Z,72.14
2023-03-27T19:47:16.335Z,71.72
2023-03-27T19:49:44.329Z,71.16
2023-03-27T19:52:20.143Z,71.03
2023-03-27T19:54:48.111Z,70.46
2023-03-27T19:57:16.298Z,70.61
2023-03-27T19:59:44.633Z,70.51
2023-03-27T20:02:13.317Z,70.33
2023-03-27T20:04:41.628Z,69.59
2023-03-27T20:07:10.443Z,69.81
2023-03-27T20:09:38.700Z,69.74
2023-03-27T20:12:07.066Z,69.40
2023-03-27T20:14:35.433Z,69.33
2023-03-27T20:17:05.023Z,68.71
2023-03-27T20:19:34.922Z,68.81
2023-03-27T20:22:05.248Z,69.25
2023-03-27T20:24:33.233Z,68.88
2023-03-27T20:27:02.235Z,68.15
2023-03-27T20:29:30.776Z,68.35
2023-03-27T20:31:58.824Z,68.57
2023-03-27T20:34:26.983Z,68.80
2023-03-27T20:36:59.249Z,68.73
2023-03-27T20:39:38.927Z,68.68
2023-03-27T20:42:07.844Z,68.45
2023-03-27T20:44:35.857Z,68.34
2023-03-27T20:47:12.361Z,68.44
2023-03-27T20:49:44.132Z,68.10
2023-03-27T20:52:15.588Z,67.81
2023-03-27T20:54:43.800Z,67.82
2023-03-27T20:57:13.012Z,68.21
2023-03-27T20:59:41.196Z,68.09
2023-03-27T21:02:16.618Z,68.02
2023-03-27T21:04:45.231Z,68.22
2023-03-27T21:07:13.561Z,68.14
2023-03-27T21:09:42.996Z,68.07
2023-03-27T21:12:11.251Z,68.00
2023-03-27T21:14:39.226Z,68.13
2023-03-27T21:17:07.189Z,67.89
2023-03-27T21:19:35.502Z,67.90
2023-03-27T21:22:03.418Z,68.16
2023-03-27T21:24:31.608Z,68.11
2023-03-27T21:27:00.316Z,68.18
2023-03-27T21:29:28.286Z,68.03
2023-03-27T21:31:56.289Z,68.00
2023-03-27T21:34:24.814Z,68.02
2023-03-27T21:36:52.797Z,67.92
2023-03-27T21:39:21.394Z,68.25
2023-03-27T21:41:49.532Z,68.41
2023-03-27T21:44:17.511Z,68.23
2023-03-27T21:46:45.832Z,68.40
2023-03-27T21:49:13.968Z,68.43
2023-03-27T21:51:41.969Z,68.39
2023-03-27T21:54:10.038Z,68.63
2023-03-27T21:56:38.161Z,68.93
2023-03-27T21:59:06.052Z,69.01
2023-03-27T22:01:34.078Z,69.11
2023-03-27T22:04:02.520Z,69.42
2023-03-27T22:06:30.500Z,69.36
2023-03-27T22:08:58.535Z,69.50
2023-03-27T22:11:26.729Z,69.47
2023-03-27T22:13:54.971Z,69.90
2023-03-27T22:16:23.129Z,70.10
2023-03-27T22:18:51.319Z,69.59
2023-03-27T22:21:25.414Z,69.52
2023-03-27T22:23:55.191Z,69.94
2023-03-27T22:26:26.815Z,70.07
2023-03-27T22:28:55.015Z,70.14
2023-03-27T22:31:24.549Z,70.19
2023-03-27T22:33:53.228Z,70.22
2023-03-27T22:36:21.850Z,70.13
2023-03-27T22:38:50.173Z,70.21
2023-03-27T22:41:18.241Z,70.28
2023-03-27T22:43:49.279Z,70.51
2023-03-27T22:46:20.561Z,70.70
2023-03-27T22:48:56.514Z,70.72
2023-03-27T22:51:25.574Z,70.82
2023-03-27T22:53:53.642Z,70.97
2023-03-27T22:56:21.687Z,71.06
2023-03-27T22:58:50.118Z,71.17
2023-03-27T23:01:18.655Z,71.35
2023-03-27T23:03:47.001Z,71.42
2023-03-27T23:06:24.357Z,71.49
2023-03-27T23:08:52.640Z,71.50
2023-03-27T23:11:20.696Z,71.81
2023-03-27T23:13:49.087Z,72.10
2023-03-27T23:16:17.063Z,72.17
2023-03-27T23:18:45.089Z,72.23
2023-03-27T23:21:16.917Z,72.32
2023-03-27T23:23:45.510Z,72.47
2023-03-27T23:26:13.788Z,72.63
2023-03-27T23:28:42.700Z,72.71
2023-03-27T23:31:20.245Z,72.89
2023-03-27T23:33:50.908Z,73.00
2023-03-27T23:36:21.715Z,73.06
2023-03-27T23:38:51.716Z,73.25
2023-03-27T23:41:20.710Z,73.27
2023-03-27T23:43:49.311Z,73.35
2023-03-27T23:46:17.792Z,73.42
2023-03-27T23:48:46.172Z,73.42
2023-03-27T23:51:16.168Z,73.52
2023-03-27T23:53:44.639Z,73.53
2023-03-27T23:56:13.089Z,73.59
2023-03-27T23:58:41.301Z,73.69
